Time;durP1;ratioP1;P1;durP2;ratioP2;P2;SDS_P1;SDS_P2;PMS_P1;PMS_P2;Temp;Humidity;BMP_temperature;BMP_pressure;BME280_temperature;BME280_humidity;BME280_pressure;Samples;Min_cycle;Max_cycle;Signal;HPM_P1;HPM_P2
2023/08/08 00:02:21;;;;;;;0.20;0.10;;;;;;;;;;4966867;28;20053;-84
2023/08/08 00:04:48;;;;;;;0.20;0.10;;;;;;;;;;4962564;28;20414;-84
2023/08/08 00:07:14;;;;;;;0.20;0.10;;;;;;;;;;4976064;28;20061;-83
2023/08/08 00:09:41;;;;;;;0.22;0.22;;;;;;;;;;4984343;28;20034;-85
2023/08/08 00:12:07;;;;;;;0.20;0.00;;;;;;;;;;4961821;28;20045;-83
2023/08/08 00:14:33;;;;;;;0.40;0.25;;;;;;;;;;4979106;28;20098;-84
2023/08/08 00:16:59;;;;;;;0.35;0.32;;;;;;;;;;4962613;28;20057;-84
2023/08/08 00:19:25;;;;;;;0.20;0.03;;;;;;;;;;4962476;28;20042;-84
2023/08/08 00:21:51;;;;;;;0.40;0.35;;;;;;;;;;4980394;28;20046;-83
2023/08/08 00:24:17;;;;;;;0.20;0.10;;;;;;;;;;4964167;28;20446;-84
2023/08/08 00:26:43;;;;;;;0.20;0.10;;;;;;;;;;4980123;28;20553;-84
2023/08/08 00:29:09;;;;;;;0.20;0.10;;;;;;;;;;4987110;28;20477;-84
2023/08/08 00:31:35;;;;;;;0.20;0.10;;;;;;;;;;4975111;28;20038;-84
2023/08/08 00:34:01;;;;;;;0.20;0.10;;;;;;;;;;4966222;28;20136;-82
2023/08/08 00:36:27;;;;;;;0.20;0.00;;;;;;;;;;4983377;28;20109;-84
2023/08/08 00:38:53;;;;;;;0.20;0.10;;;;;;;;;;4976623;28;20079;-84
2023/08/08 00:41:19;;;;;;;0.20;0.10;;;;;;;;;;4977882;28;20307;-84
2023/08/08 00:43:45;;;;;;;0.20;0.10;;;;;;;;;;4967121;28;20456;-83
2023/08/08 00:46:11;;;;;;;0.20;0.10;;;;;;;;;;4963747;28;20050;-84
2023/08/08 00:48:38;;;;;;;0.20;0.10;;;;;;;;;;4964715;28;20105;-82
2023/08/08 00:51:04;;;;;;;0.22;0.20;;;;;;;;;;4975598;28;20407;-83
2023/08/08 00:53:31;;;;;;;0.35;0.10;;;;;;;;;;4970977;28;20056;-83
2023/08/08 00:55:57;;;;;;;0.20;0.08;;;;;;;;;;4968264;28;21774;-84
2023/08/08 00:58:23;;;;;;;0.25;0.10;;;;;;;;;;4960715;28;20045;-82
2023/08/08 01:00:49;;;;;;;0.20;0.10;;;;;;;;;;4976545;28;20041;-84
2023/08/08 01:03:15;;;;;;;0.20;0.10;;;;;;;;;;4963709;28;20073;-84
2023/08/08 01:05:44;;;;;;;0.20;0.13;;;;;;;;;;4974724;28;20093;-82
2023/08/08 01:08:10;;;;;;;0.20;0.10;;;;;;;;;;4979358;28;20069;-83
2023/08/08 01:10:41;;;;;;;0.20;0.10;;;;;;;;;;4961660;28;20498;-83
2023/08/08 01:13:18;;;;;;;0.20;0.10;;;;;;;;;;4973713;28;20038;-83
2023/08/08 01:15:45;;;;;;;0.20;0.10;;;;;;;;;;4976163;28;20061;-85
2023/08/08 01:18:12;;;;;;;0.57;0.43;;;;;;;;;;4979720;28;20049;-83
2023/08/08 01:20:38;;;;;;;0.20;0.10;;;;;;;;;;4966447;28;21725;-84
2023/08/08 01:23:11;;;;;;;0.28;0.25;;;;;;;;;;4963098;28;20077;-83
2023/08/08 01:25:38;;;;;;;0.20;0.10;;;;;;;;;;4963070;28;20046;-83
2023/08/08 01:28:05;;;;;;;0.55;0.50;;;;;;;;;;4961684;28;20475;-83
2023/08/08 01:30:31;;;;;;;0.20;0.05;;;;;;;;;;4967044;28;20396;-83
2023/08/08 01:32:57;;;;;;;0.20;0.08;;;;;;;;;;4959973;28;20041;-83
2023/08/08 01:35:25;;;;;;;0.20;0.10;;;;;;;;;;4978221;28;20069;-83
2023/08/08 01:37:53;;;;;;;0.20;0.10;;;;;;;;;;4981043;28;20061;-83
2023/08/08 01:40:20;;;;;;;0.25;0.20;;;;;;;;;;4967224;28;20132;-84
2023/08/08 01:42:46;;;;;;;0.20;0.10;;;;;;;;;;4965582;28;20124;-83
2023/08/08 01:45:13;;;;;;;0.20;0.10;;;;;;;;;;4981174;28;20057;-83
2023/08/08 01:47:39;;;;;;;0.30;0.20;;;;;;;;;;4983342;28;20088;-83
2023/08/08 01:50:06;;;;;;;0.38;0.38;;;;;;;;;;4980187;28;20097;-82
2023/08/08 01:52:32;;;;;;;0.20;0.10;;;;;;;;;;4966774;28;20046;-82
2023/08/08 01:54:58;;;;;;;0.20;0.08;;;;;;;;;;4970510;28;20554;-82
2023/08/08 01:57:24;;;;;;;0.20;0.10;;;;;;;;;;4993990;23;20112;-85
2023/08/08 01:59:50;;;;;;;0.20;0.10;;;;;;;;;;4969918;28;20523;-83
2023/08/08 02:02:17;;;;;;;0.20;0.10;;;;;;;;;;4980500;28;20659;-83
2023/08/08 02:04:43;;;;;;;0.20;0.10;;;;;;;;;;4958242;28;20096;-83
2023/08/08 02:07:09;;;;;;;0.68;0.45;;;;;;;;;;4966242;28;20047;-82
2023/08/08 02:09:35;;;;;;;0.20;0.10;;;;;;;;;;4943961;28;20423;-82
2023/08/08 02:12:01;;;;;;;0.20;0.10;;;;;;;;;;4953828;28;20042;-83
2023/08/08 02:14:27;;;;;;;0.20;0.10;;;;;;;;;;4942636;28;21242;-83
2023/08/08 02:16:53;;;;;;;0.20;0.05;;;;;;;;;;4958316;28;20164;-84
2023/08/08 02:19:19;;;;;;;0.20;0.10;;;;;;;;;;4941777;28;20564;-82
2023/08/08 02:21:45;;;;;;;0.20;0.10;;;;;;;;;;4929461;28;20042;-83
2023/08/08 02:24:11;;;;;;;0.20;0.10;;;;;;;;;;4956642;28;20050;-84
2023/08/08 02:26:37;;;;;;;0.40;0.40;;;;;;;;;;4938654;28;20045;-83
2023/08/08 02:29:03;;;;;;;0.20;0.10;;;;;;;;;;4959068;28;20097;-86
2023/08/08 02:31:29;;;;;;;0.20;0.00;;;;;;;;;;4955191;28;20988;-84
2023/08/08 02:33:55;;;;;;;0.20;0.10;;;;;;;;;;4954029;28;20127;-82
2023/08/08 02:36:22;;;;;;;0.20;0.10;;;;;;;;;;4942531;28;20062;-88
2023/08/08 02:38:49;;;;;;;0.20;0.20;;;;;;;;;;4962645;28;20645;-83
2023/08/08 02:41:15;;;;;;;0.20;0.10;;;;;;;;;;4933095;28;20053;-83
2023/08/08 02:43:41;;;;;;;0.30;0.17;;;;;;;;;;4940452;28;20137;-83
2023/08/08 02:46:07;;;;;;;0.20;0.10;;;;;;;;;;4960125;28;20546;-81
2023/08/08 02:48:33;;;;;;;0.20;0.20;;;;;;;;;;4956276;28;20053;-81
2023/08/08 02:50:59;;;;;;;0.20;0.20;;;;;;;;;;4961656;28;20063;-81
2023/08/08 02:53:25;;;;;;;0.20;0.10;;;;;;;;;;4956793;28;20082;-82
2023/08/08 02:55:51;;;;;;;0.20;0.10;;;;;;;;;;4953702;28;20469;-81
2023/08/08 02:58:17;;;;;;;0.28;0.28;;;;;;;;;;4935784;28;20130;-82
2023/08/08 03:00:43;;;;;;;0.20;0.10;;;;;;;;;;4933900;28;20153;-83
2023/08/08 03:03:09;;;;;;;0.20;0.10;;;;;;;;;;4932493;28;20103;-84
2023/08/08 03:05:35;;;;;;;0.20;0.10;;;;;;;;;;4936524;28;20039;-84
2023/08/08 03:08:01;;;;;;;0.82;0.20;;;;;;;;;;4960595;28;20495;-84
2023/08/08 03:10:27;;;;;;;0.20;0.10;;;;;;;;;;4937805;28;20043;-82
2023/08/08 03:12:53;;;;;;;0.20;0.10;;;;;;;;;;4958867;28;20130;-83
2023/08/08 03:15:19;;;;;;;0.30;0.30;;;;;;;;;;4943681;28;20042;-83
2023/08/08 03:17:45;;;;;;;0.20;0.10;;;;;;;;;;4936880;28;20491;-84
2023/08/08 03:20:12;;;;;;;0.20;0.10;;;;;;;;;;4940709;28;20130;-83
2023/08/08 03:22:38;;;;;;;0.20;0.10;;;;;;;;;;4941987;28;20508;-83
2023/08/08 03:25:04;;;;;;;0.20;0.10;;;;;;;;;;4936521;28;20146;-83
2023/08/08 03:27:30;;;;;;;0.20;0.10;;;;;;;;;;4952166;28;20057;-85
2023/08/08 03:29:56;;;;;;;0.20;0.10;;;;;;;;;;4946356;28;20046;-83
2023/08/08 03:32:23;;;;;;;0.20;0.00;;;;;;;;;;4959364;28;20053;-83
2023/08/08 03:34:49;;;;;;;0.20;0.00;;;;;;;;;;4958199;28;20075;-82
2023/08/08 03:37:15;;;;;;;0.20;0.08;;;;;;;;;;4957658;28;20463;-84
2023/08/08 03:39:41;;;;;;;0.20;0.10;;;;;;;;;;4943931;28;20608;-85
2023/08/08 03:42:07;;;;;;;0.20;0.10;;;;;;;;;;4937796;28;20046;-83
2023/08/08 03:44:33;;;;;;;0.20;0.13;;;;;;;;;;4961159;28;20047;-84
2023/08/08 03:46:59;;;;;;;0.20;0.00;;;;;;;;;;4961085;28;20123;-83
2023/08/08 03:49:25;;;;;;;0.20;0.10;;;;;;;;;;4937687;28;20142;-85
2023/08/08 03:51:51;;;;;;;1.85;0.30;;;;;;;;;;4940191;28;20047;-84
2023/08/08 03:54:18;;;;;;;0.20;0.00;;;;;;;;;;4962023;28;20047;-82
2023/08/08 03:56:44;;;;;;;0.20;0.10;;;;;;;;;;4959999;28;20058;-83
2023/08/08 03:59:10;;;;;;;0.20;0.10;;;;;;;;;;4947317;28;20916;-83
2023/08/08 04:01:37;;;;;;;0.20;0.10;;;;;;;;;;4936171;28;20051;-83
2023/08/08 04:04:04;;;;;;;0.20;0.10;;;;;;;;;;4958574;28;20781;-83
2023/08/08 04:06:30;;;;;;;0.20;0.00;;;;;;;;;;4941198;28;20039;-82
2023/08/08 04:08:56;;;;;;;0.55;0.30;;;;;;;;;;4960550;28;20456;-87
2023/08/08 04:11:22;;;;;;;0.20;0.10;;;;;;;;;;4962205;28;20218;-83
2023/08/08 04:13:48;;;;;;;0.20;0.00;;;;;;;;;;4954458;28;20496;-83
2023/08/08 04:16:14;;;;;;;0.20;0.10;;;;;;;;;;4943817;28;20065;-85
2023/08/08 04:18:41;;;;;;;0.20;0.10;;;;;;;;;;4944552;28;20047;-83
2023/08/08 04:21:07;;;;;;;0.20;0.10;;;;;;;;;;4943829;28;20406;-84
2023/08/08 04:23:33;;;;;;;0.20;0.10;;;;;;;;;;4964868;28;20419;-85
2023/08/08 04:25:59;;;;;;;0.20;0.00;;;;;;;;;;4959009;28;20046;-85
2023/08/08 04:28:25;;;;;;;0.20;0.00;;;;;;;;;;4935308;28;22375;-82
2023/08/08 04:30:51;;;;;;;0.20;0.00;;;;;;;;;;4930759;28;20043;-82
2023/08/08 04:33:17;;;;;;;0.20;0.20;;;;;;;;;;4944188;28;20477;-84
2023/08/08 04:35:43;;;;;;;0.20;0.10;;;;;;;;;;4955803;28;20050;-84
2023/08/08 04:38:09;;;;;;;0.20;0.10;;;;;;;;;;4959887;28;20522;-84
2023/08/08 04:40:35;;;;;;;0.20;0.10;;;;;;;;;;4944470;28;20448;-83
2023/08/08 04:43:01;;;;;;;0.20;0.10;;;;;;;;;;4946392;28;20049;-86
2023/08/08 04:45:28;;;;;;;0.20;0.03;;;;;;;;;;4955828;28;20043;-84
2023/08/08 04:47:55;;;;;;;0.68;0.52;;;;;;;;;;4960884;28;20047;-82
2023/08/08 04:50:21;;;;;;;0.20;0.10;;;;;;;;;;4959580;28;20042;-81
2023/08/08 04:52:49;;;;;;;0.20;0.10;;;;;;;;;;4966445;28;20046;-84
2023/08/08 04:55:15;;;;;;;0.20;0.08;;;;;;;;;;4938206;28;20070;-82
2023/08/08 04:57:41;;;;;;;0.20;0.10;;;;;;;;;;4960401;28;20104;-85
2023/08/08 05:00:08;;;;;;;0.20;0.10;;;;;;;;;;4941635;28;20057;-85
2023/08/08 05:02:39;;;;;;;0.50;0.50;;;;;;;;;;4962143;28;21854;-84
2023/08/08 05:05:05;;;;;;;0.43;0.43;;;;;;;;;;4942065;28;20050;-84
2023/08/08 05:07:31;;;;;;;0.20;0.05;;;;;;;;;;4977217;28;20035;-87
2023/08/08 05:09:57;;;;;;;0.20;0.10;;;;;;;;;;4939659;28;20027;-83
2023/08/08 05:12:23;;;;;;;0.20;0.10;;;;;;;;;;4935488;28;20045;-83
2023/08/08 05:14:49;;;;;;;0.20;0.10;;;;;;;;;;4940683;28;20983;-83
2023/08/08 05:17:15;;;;;;;0.20;0.10;;;;;;;;;;4954749;28;20042;-82
2023/08/08 05:19:41;;;;;;;0.20;0.00;;;;;;;;;;4944969;28;20054;-83
2023/08/08 05:22:07;;;;;;;0.20;0.08;;;;;;;;;;4953363;28;20145;-85
2023/08/08 05:24:35;;;;;;;0.20;0.10;;;;;;;;;;4957883;28;20050;-83
2023/08/08 05:27:01;;;;;;;0.20;0.10;;;;;;;;;;4959484;28;20038;-85
2023/08/08 05:29:27;;;;;;;0.20;0.00;;;;;;;;;;4957562;28;20097;-86
2023/08/08 05:31:53;;;;;;;0.20;0.20;;;;;;;;;;4965333;28;20034;-83
2023/08/08 05:34:19;;;;;;;0.20;0.10;;;;;;;;;;4939888;28;21300;-84
2023/08/08 05:36:45;;;;;;;5.20;0.63;;;;;;;;;;4959004;28;20451;-82
2023/08/08 05:39:11;;;;;;;0.77;0.75;;;;;;;;;;4963490;28;20504;-83
2023/08/08 05:41:37;;;;;;;0.35;0.25;;;;;;;;;;4953965;28;20053;-83
2023/08/08 05:44:03;;;;;;;0.38;0.35;;;;;;;;;;4943425;28;20050;-85
2023/08/08 05:46:29;;;;;;;0.20;0.10;;;;;;;;;;4948091;28;20046;-83
2023/08/08 05:48:55;;;;;;;0.20;0.10;;;;;;;;;;4957567;28;20043;-85
2023/08/08 05:51:21;;;;;;;0.20;0.00;;;;;;;;;;4963254;28;20047;-83
2023/08/08 05:53:47;;;;;;;0.40;0.40;;;;;;;;;;4940160;28;20038;-84
2023/08/08 05:56:14;;;;;;;0.20;0.10;;;;;;;;;;4943568;28;20508;-84
2023/08/08 05:58:40;;;;;;;0.20;0.08;;;;;;;;;;4962192;28;20046;-83
2023/08/08 06:01:09;;;;;;;0.20;0.10;;;;;;;;;;4947743;28;20042;-82
2023/08/08 06:03:35;;;;;;;2.33;0.30;;;;;;;;;;4962179;28;20140;-83
2023/08/08 06:06:01;;;;;;;0.57;0.40;;;;;;;;;;4960592;28;20062;-82
2023/08/08 06:08:27;;;;;;;0.20;0.10;;;;;;;;;;4963619;28;20039;-82
2023/08/08 06:10:54;;;;;;;0.20;0.03;;;;;;;;;;4961809;28;20102;-85
2023/08/08 06:13:20;;;;;;;0.20;0.10;;;;;;;;;;4944869;28;20124;-84
2023/08/08 06:15:46;;;;;;;0.20;0.20;;;;;;;;;;4963797;28;20062;-84
2023/08/08 06:18:12;;;;;;;0.20;0.10;;;;;;;;;;4956856;28;20113;-83
2023/08/08 06:20:38;;;;;;;0.20;0.10;;;;;;;;;;4958084;28;20061;-83
2023/08/08 06:23:04;;;;;;;0.32;0.20;;;;;;;;;;4957722;28;20035;-82
2023/08/08 06:25:30;;;;;;;0.20;0.10;;;;;;;;;;4945525;28;20050;-83
2023/08/08 06:27:56;;;;;;;0.20;0.10;;;;;;;;;;4934135;28;20050;-82
2023/08/08 06:30:22;;;;;;;0.20;0.05;;;;;;;;;;4958394;28;20042;-81
2023/08/08 06:32:48;;;;;;;3.13;1.63;;;;;;;;;;4946212;28;20062;-82
2023/08/08 06:35:16;;;;;;;0.20;0.10;;;;;;;;;;4954250;28;20042;-82
2023/08/08 06:37:44;;;;;;;0.20;0.10;;;;;;;;;;4936872;28;20051;-83
2023/08/08 06:40:12;;;;;;;1.27;1.17;;;;;;;;;;4964387;28;20050;-82
2023/08/08 06:42:38;;;;;;;0.30;0.20;;;;;;;;;;4956031;28;20047;-84
2023/08/08 06:45:04;;;;;;;0.20;0.10;;;;;;;;;;4939492;28;20352;-82
2023/08/08 06:47:31;;;;;;;0.22;0.15;;;;;;;;;;4960841;28;20516;-84
2023/08/08 06:50:00;;;;;;;0.20;0.10;;;;;;;;;;4941936;28;20046;-85
2023/08/08 06:52:26;;;;;;;0.20;0.10;;;;;;;;;;4968640;28;20085;-84
2023/08/08 06:54:52;;;;;;;0.20;0.05;;;;;;;;;;4937602;28;20050;-84
2023/08/08 06:57:18;;;;;;;0.20;0.10;;;;;;;;;;4953123;28;20049;-82
2023/08/08 06:59:44;;;;;;;0.20;0.10;;;;;;;;;;4934718;28;20053;-82
2023/08/08 07:02:11;;;;;;;0.20;0.10;;;;;;;;;;4938429;28;20038;-84
2023/08/08 07:04:37;;;;;;;0.20;0.10;;;;;;;;;;4944096;28;20042;-84
2023/08/08 07:07:03;;;;;;;0.20;0.10;;;;;;;;;;4962365;28;20094;-83
2023/08/08 07:09:30;;;;;;;0.20;0.00;;;;;;;;;;4954079;28;20377;-82
2023/08/08 07:11:56;;;;;;;0.20;0.10;;;;;;;;;;4938719;28;20073;-84
2023/08/08 07:14:22;;;;;;;0.38;0.38;;;;;;;;;;4938629;28;20074;-83
2023/08/08 07:16:51;;;;;;;0.20;0.08;;;;;;;;;;4937456;28;20525;-83
2023/08/08 07:19:18;;;;;;;0.20;0.10;;;;;;;;;;4961022;28;20058;-83
2023/08/08 07:21:44;;;;;;;0.57;0.47;;;;;;;;;;4967260;28;20139;-83
2023/08/08 07:24:10;;;;;;;0.38;0.38;;;;;;;;;;4950521;28;20193;-88
2023/08/08 07:26:37;;;;;;;0.20;0.00;;;;;;;;;;4947152;28;21793;-83
2023/08/08 07:29:05;;;;;;;0.20;0.00;;;;;;;;;;4943803;28;20165;-83
2023/08/08 07:31:32;;;;;;;0.40;0.25;;;;;;;;;;4954970;28;20051;-84
2023/08/08 07:33:58;;;;;;;0.20;0.08;;;;;;;;;;4952099;28;20041;-81
2023/08/08 07:36:24;;;;;;;0.20;0.10;;;;;;;;;;4950300;28;20093;-82
2023/08/08 07:38:50;;;;;;;0.20;0.10;;;;;;;;;;4950334;28;20050;-84
2023/08/08 07:41:17;;;;;;;0.20;0.10;;;;;;;;;;4956317;28;20058;-84
2023/08/08 07:43:43;;;;;;;0.20;0.10;;;;;;;;;;4957153;28;20078;-86
2023/08/08 07:46:10;;;;;;;0.30;0.30;;;;;;;;;;4941444;28;20042;-81
2023/08/08 07:48:36;;;;;;;0.20;0.10;;;;;;;;;;4961028;28;20072;-85
2023/08/08 07:51:03;;;;;;;0.20;0.10;;;;;;;;;;4962522;28;20491;-85
2023/08/08 07:53:29;;;;;;;0.20;0.10;;;;;;;;;;4966266;28;20035;-85
2023/08/08 07:55:55;;;;;;;0.68;0.65;;;;;;;;;;4938439;28;20051;-86
2023/08/08 07:58:25;;;;;;;0.45;0.45;;;;;;;;;;5000736;23;20053;-82
2023/08/08 08:01:01;;;;;;;0.20;0.05;;;;;;;;;;4945395;28;20070;-81
2023/08/08 08:03:32;;;;;;;0.20;0.10;;;;;;;;;;4957961;28;20101;-83
2023/08/08 08:05:58;;;;;;;0.20;0.00;;;;;;;;;;4977098;28;20542;-84
2023/08/08 08:08:27;;;;;;;0.20;0.08;;;;;;;;;;4956226;28;20046;-80
2023/08/08 08:13:55;;;;;;;0.20;0.10;;;;;;;;;;4960501;28;20043;-85
2023/08/08 08:16:21;;;;;;;0.20;0.10;;;;;;;;;;4945318;28;20396;-82
2023/08/08 08:18:50;;;;;;;0.20;0.10;;;;;;;;;;4943471;28;20054;-83
2023/08/08 08:21:29;;;;;;;0.20;0.10;;;;;;;;;;4935167;28;20055;-83
2023/08/08 08:24:12;;;;;;;0.20;0.10;;;;;;;;;;4944595;28;20516;-86
2023/08/08 08:26:51;;;;;;;0.80;0.80;;;;;;;;;;4956727;28;20066;-84
2023/08/08 08:29:31;;;;;;;0.20;0.10;;;;;;;;;;4938498;28;20084;-84
2023/08/08 08:32:09;;;;;;;0.20;0.10;;;;;;;;;;4943700;28;20128;-86
2023/08/08 08:34:38;;;;;;;0.20;0.00;;;;;;;;;;4956903;28;20042;-83
2023/08/08 08:40:24;;;;;;;0.20;0.10;;;;;;;;;;4949798;28;20090;-85
2023/08/08 08:42:54;;;;;;;0.20;0.10;;;;;;;;;;4946878;28;20642;-82
2023/08/08 08:45:30;;;;;;;0.20;0.08;;;;;;;;;;4961828;28;20097;-81
2023/08/08 08:48:23;;;;;;;0.20;0.10;;;;;;;;;;4961910;28;20038;-83
2023/08/08 08:50:49;;;;;;;0.20;0.10;;;;;;;;;;4952872;28;20499;-84
2023/08/08 08:53:22;;;;;;;0.20;0.10;;;;;;;;;;4943205;28;20038;-85
2023/08/08 08:56:08;;;;;;;0.20;0.10;;;;;;;;;;4968223;28;20065;-83
2023/08/08 08:58:37;;;;;;;0.20;0.10;;;;;;;;;;4952036;28;20050;-84
2023/08/08 09:01:09;;;;;;;0.20;0.05;;;;;;;;;;4951376;28;20038;-82
2023/08/08 09:03:39;;;;;;;0.20;0.10;;;;;;;;;;4955419;28;20060;-85
2023/08/08 09:06:08;;;;;;;0.20;0.05;;;;;;;;;;4955326;28;20058;-83
2023/08/08 09:08:42;;;;;;;0.20;0.10;;;;;;;;;;4954397;28;20074;-85
2023/08/08 09:11:11;;;;;;;2.90;1.35;;;;;;;;;;4933034;28;20059;-85
2023/08/08 09:13:40;;;;;;;0.20;0.08;;;;;;;;;;4950337;28;20035;-84
2023/08/08 09:16:12;;;;;;;0.20;0.10;;;;;;;;;;4937993;28;20385;-84
2023/08/08 09:18:44;;;;;;;0.20;0.20;;;;;;;;;;4952243;28;20080;-84
2023/08/08 09:21:28;;;;;;;0.20;0.00;;;;;;;;;;4974496;28;20575;-83
2023/08/08 09:24:18;;;;;;;0.20;0.10;;;;;;;;;;4940783;28;20042;-85
2023/08/08 09:26:47;;;;;;;0.30;0.30;;;;;;;;;;4956883;28;20054;-84
2023/08/08 09:29:17;;;;;;;0.20;0.10;;;;;;;;;;4962982;28;20053;-81
2023/08/08 09:31:54;;;;;;;0.20;0.10;;;;;;;;;;4960305;28;20062;-83
2023/08/08 09:34:42;;;;;;;0.20;0.10;;;;;;;;;;4946269;28;20055;-84
2023/08/08 09:37:26;;;;;;;0.20;0.10;;;;;;;;;;4946243;28;20135;-83
2023/08/08 09:43:00;;;;;;;0.52;0.25;;;;;;;;;;4949361;28;20491;-85
2023/08/08 09:45:26;;;;;;;0.20;0.10;;;;;;;;;;4945276;28;20042;-83
2023/08/08 09:48:01;;;;;;;0.20;0.00;;;;;;;;;;4940120;28;20051;-81
2023/08/08 09:50:38;;;;;;;0.20;0.10;;;;;;;;;;4944023;28;20130;-84
2023/08/08 09:53:11;;;;;;;0.25;0.15;;;;;;;;;;4946318;28;20396;-82
2023/08/08 09:55:37;;;;;;;;;;;;;;;;;;4966281;28;20476;-87
2023/08/08 09:58:11;;;;;;;0.20;0.10;;;;;;;;;;4953216;28;19976;-81
2023/08/08 10:00:44;;;;;;;0.20;0.15;;;;;;;;;;4958662;28;20586;-83
2023/08/08 10:03:11;;;;;;;0.65;0.20;;;;;;;;;;4949030;28;20117;-82
2023/08/08 10:05:42;;;;;;;0.20;0.10;;;;;;;;;;4947856;28;20659;-86
2023/08/08 10:08:32;;;;;;;0.20;0.10;;;;;;;;;;4945434;28;20047;-85
2023/08/08 10:11:10;;;;;;;0.20;0.10;;;;;;;;;;4960155;28;20386;-84
2023/08/08 10:13:57;;;;;;;2.28;0.80;;;;;;;;;;4950489;28;20133;-84
2023/08/08 10:19:36;;;;;;;0.20;0.10;;;;;;;;;;4955509;28;20125;-84
2023/08/08 10:22:32;;;;;;;0.20;0.10;;;;;;;;;;4940562;28;20097;-85
2023/08/08 10:25:08;;;;;;;0.20;0.00;;;;;;;;;;4946024;28;20069;-84
2023/08/08 10:27:57;;;;;;;0.20;0.10;;;;;;;;;;4959010;28;20442;-88
2023/08/08 10:30:26;;;;;;;0.20;0.10;;;;;;;;;;4939678;28;20296;-84
2023/08/08 10:33:18;;;;;;;0.47;0.47;;;;;;;;;;4939520;28;20074;-87
2023/08/08 10:36:17;;;;;;;0.20;0.10;;;;;;;;;;4937246;28;20179;-84
2023/08/08 10:38:49;;;;;;;0.20;0.10;;;;;;;;;;4944108;28;20042;-85
2023/08/08 10:41:19;;;;;;;0.20;0.00;;;;;;;;;;4961113;28;20043;-83
2023/08/08 10:44:01;;;;;;;0.20;0.10;;;;;;;;;;4958714;28;20039;-82
2023/08/08 10:46:38;;;;;;;0.20;0.10;;;;;;;;;;4965669;28;20412;-83
2023/08/08 10:49:14;;;;;;;0.20;0.05;;;;;;;;;;4947024;28;20043;-86
2023/08/08 10:51:51;;;;;;;0.20;0.10;;;;;;;;;;4958745;28;20490;-86
2023/08/08 10:54:33;;;;;;;0.20;0.10;;;;;;;;;;4959078;28;20050;-84
2023/08/08 10:56:59;;;;;;;0.20;0.10;;;;;;;;;;4936889;28;20519;-82
2023/08/08 10:59:37;;;;;;;0.20;0.10;;;;;;;;;;4958496;28;20054;-85
2023/08/08 11:02:16;;;;;;;0.20;0.10;;;;;;;;;;4957416;28;20055;-84
2023/08/08 11:04:59;;;;;;;0.20;0.10;;;;;;;;;;4961017;28;20050;-84
2023/08/08 11:07:40;;;;;;;0.38;0.28;;;;;;;;;;4946019;28;20571;-83
2023/08/08 11:10:22;;;;;;;0.20;0.10;;;;;;;;;;4969466;28;20113;-84
2023/08/08 11:13:42;;;;;;;0.20;0.10;;;;;;;;;;4971066;28;20050;-82
2023/08/08 11:16:17;;;;;;;0.20;0.10;;;;;;;;;;4955675;28;20051;-84
2023/08/08 11:18:47;;;;;;;0.82;0.35;;;;;;;;;;4949050;28;20050;-85
2023/08/08 11:21:16;;;;;;;0.20;0.00;;;;;;;;;;4970235;28;20054;-86
2023/08/08 11:23:45;;;;;;;0.20;0.00;;;;;;;;;;4949950;28;20069;-80
2023/08/08 11:26:17;;;;;;;0.20;0.10;;;;;;;;;;4970074;28;20050;-86
2023/08/08 11:31:25;;;;;;;0.20;0.10;;;;;;;;;;5018375;23;20172;-81
2023/08/08 11:34:02;;;;;;;0.20;0.10;;;;;;;;;;4975322;28;20065;-83
2023/08/08 11:36:34;;;;;;;0.22;0.13;;;;;;;;;;4988245;28;20046;-83
2023/08/08 11:39:07;;;;;;;0.20;0.17;;;;;;;;;;4965889;28;20046;-82
2023/08/08 11:41:33;;;;;;;;;;;;;;;;;;4953457;28;20042;-83
2023/08/08 11:43:59;;;;;;;1.20;0.25;;;;;;;;;;4955940;28;20440;-83
2023/08/08 11:46:26;;;;;;;0.20;0.10;;;;;;;;;;4983136;28;20053;-85
2023/08/08 11:48:52;;;;;;;0.20;0.20;;;;;;;;;;4965815;28;20045;-85
2023/08/08 11:51:18;;;;;;;0.20;0.10;;;;;;;;;;4979687;28;20042;-80
2023/08/08 11:53:53;;;;;;;0.20;0.10;;;;;;;;;;4966860;28;20057;-83
2023/08/08 11:56:20;;;;;;;0.20;0.10;;;;;;;;;;4978166;28;20046;-84
2023/08/08 11:58:47;;;;;;;0.20;0.10;;;;;;;;;;4978648;28;20457;-79
2023/08/08 12:01:14;;;;;;;0.20;0.10;;;;;;;;;;4960506;28;20105;-82
2023/08/08 12:03:46;;;;;;;0.20;0.10;;;;;;;;;;4965323;28;20113;-85
2023/08/08 12:06:13;;;;;;;0.30;0.30;;;;;;;;;;4971026;28;20049;-84
2023/08/08 12:08:41;;;;;;;0.20;0.10;;;;;;;;;;4963795;28;20040;-84
2023/08/08 12:11:09;;;;;;;0.20;0.10;;;;;;;;;;4973434;28;20080;-84
2023/08/08 12:13:37;;;;;;;0.20;0.10;;;;;;;;;;4964790;28;20044;-85
2023/08/08 12:16:06;;;;;;;0.20;0.10;;;;;;;;;;4967494;28;20092;-80
2023/08/08 12:18:32;;;;;;;0.20;0.10;;;;;;;;;;4962867;28;20112;-80
2023/08/08 12:20:59;;;;;;;0.20;0.10;;;;;;;;;;4964467;28;20038;-83
2023/08/08 12:23:27;;;;;;;0.20;0.10;;;;;;;;;;4972462;28;20069;-83
2023/08/08 12:25:53;;;;;;;0.20;0.10;;;;;;;;;;4963684;28;20075;-83
2023/08/08 12:28:19;;;;;;;0.20;0.10;;;;;;;;;;4962160;28;20758;-80
2023/08/08 12:30:45;;;;;;;0.20;0.10;;;;;;;;;;4972863;28;20152;-81
2023/08/08 12:33:11;;;;;;;0.20;0.08;;;;;;;;;;4969010;28;20138;-80
2023/08/08 12:35:38;;;;;;;0.20;0.10;;;;;;;;;;4961069;28;20136;-80
2023/08/08 12:38:04;;;;;;;0.20;0.10;;;;;;;;;;4964316;28;20042;-81
2023/08/08 12:40:30;;;;;;;0.20;0.10;;;;;;;;;;4982967;28;20065;-82
2023/08/08 12:42:56;;;;;;;0.20;0.10;;;;;;;;;;4970143;28;20042;-79
2023/08/08 12:45:23;;;;;;;0.20;0.05;;;;;;;;;;4966740;28;20506;-81
2023/08/08 12:47:48;;;;;;;0.20;0.10;;;;;;;;;;4977782;28;20076;-82
2023/08/08 12:50:20;;;;;;;0.30;0.20;;;;;;;;;;4972100;28;20069;-84
2023/08/08 12:52:46;;;;;;;0.22;0.22;;;;;;;;;;4963095;28;20072;-84
2023/08/08 12:55:23;;;;;;;;;;;;;;;;;;;;;
2023/08/08 12:57:52;;;;;;;0.25;0.25;;;;;;;;;;4976400;28;20038;-85
2023/08/08 13:00:23;;;;;;;0.20;0.10;;;;;;;;;;4973062;28;20045;-84
2023/08/08 13:03:10;;;;;;;0.20;0.10;;;;;;;;;;4973425;28;20050;-85
2023/08/08 13:06:10;;;;;;;0.20;0.10;;;;;;;;;;4979060;28;20076;-83
2023/08/08 13:08:42;;;;;;;0.20;0.10;;;;;;;;;;4975889;23;20143;-81
2023/08/08 13:11:14;;;;;;;0.20;0.10;;;;;;;;;;4961117;28;20045;-83
2023/08/08 13:14:22;;;;;;;0.20;0.10;;;;;;;;;;4989456;28;20096;-82
2023/08/08 13:17:21;;;;;;;0.20;0.10;;;;;;;;;;4962680;28;20049;-83
2023/08/08 13:20:12;;;;;;;0.20;0.10;;;;;;;;;;4928969;28;20035;-90
2023/08/08 13:23:01;;;;;;;0.20;0.10;;;;;;;;;;4941208;28;20583;-83
2023/08/08 13:26:10;;;;;;;0.20;0.10;;;;;;;;;;4945354;28;20415;-86
2023/08/08 13:28:53;;;;;;;0.20;0.10;;;;;;;;;;4931146;28;20055;-84
2023/08/08 13:31:25;;;;;;;0.30;0.30;;;;;;;;;;4957590;28;20365;-84
2023/08/08 13:34:04;;;;;;;0.20;0.10;;;;;;;;;;4953894;28;20030;-83
2023/08/08 13:36:36;;;;;;;0.20;0.10;;;;;;;;;;4950818;28;20049;-84
2023/08/08 13:39:28;;;;;;;0.20;0.10;;;;;;;;;;4951367;28;20097;-83
2023/08/08 13:44:51;;;;;;;0.20;0.10;;;;;;;;;;4927584;28;20294;-87
2023/08/08 13:47:26;;;;;;;0.20;0.10;;;;;;;;;;4953356;28;20404;-80
2023/08/08 13:49:53;;;;;;;0.20;0.10;;;;;;;;;;4965802;28;20132;-82
2023/08/08 13:52:42;;;;;;;0.40;0.20;;;;;;;;;;4940737;28;20034;-82
2023/08/08 13:55:11;;;;;;;0.20;0.10;;;;;;;;;;4942627;28;20290;-80
2023/08/08 14:00:12;;;;;;;0.20;0.10;;;;;;;;;;5032572;28;20052;-83
2023/08/08 14:02:53;;;;;;;0.20;0.10;;;;;;;;;;5027328;28;20057;-84
2023/08/08 14:05:36;;;;;;;0.20;0.10;;;;;;;;;;5025979;28;20040;-85
2023/08/08 14:08:39;;;;;;;0.20;0.10;;;;;;;;;;5025255;28;20049;-85
2023/08/08 14:11:01;;;;;;;0.20;0.10;;;;;;;;;;5029819;28;20041;-83
2023/08/08 14:13:34;;;;;;;0.20;0.10;;;;;;;;;;5033720;28;20522;-87
2023/08/08 14:16:03;;;;;;;0.20;0.10;;;;;;;;;;5033948;28;20041;-84
2023/08/08 14:18:29;;;;;;;0.20;0.10;;;;;;;;;;5031260;28;20102;-83
2023/08/08 14:21:09;;;;;;;;;;;;;;;;;;;;;
2023/08/08 14:23:35;;;;;;;0.20;0.10;;;;;;;;;;5029727;28;20045;-84
2023/08/08 14:26:06;;;;;;;0.20;0.10;;;;;;;;;;5031690;28;20036;-86
2023/08/08 14:28:32;;;;;;;0.20;0.00;;;;;;;;;;5030419;28;20049;-84
2023/08/08 14:30:58;;;;;;;0.20;0.10;;;;;;;;;;5032434;28;20049;-86
2023/08/08 14:33:39;;;;;;;0.20;0.10;;;;;;;;;;5012341;28;20053;-85
2023/08/08 14:36:08;;;;;;;0.20;0.10;;;;;;;;;;5017253;28;20663;-88
2023/08/08 14:38:38;;;;;;;0.20;0.10;;;;;;;;;;5032375;28;20097;-84
2023/08/08 14:41:04;;;;;;;0.20;0.10;;;;;;;;;;5022956;28;20044;-84
2023/08/08 14:43:47;;;;;;;0.20;0.10;;;;;;;;;;5035003;28;20415;-86
2023/08/08 14:46:16;;;;;;;0.20;0.10;;;;;;;;;;5020182;28;20133;-84
2023/08/08 14:48:44;;;;;;;0.20;0.10;;;;;;;;;;5031165;28;20053;-84
2023/08/08 14:51:16;;;;;;;0.30;0.13;;;;;;;;;;5019542;28;20068;-84
2023/08/08 14:53:43;;;;;;;0.20;0.10;;;;;;;;;;5031926;28;20052;-84
2023/08/08 14:56:09;;;;;;;0.20;0.00;;;;;;;;;;5025934;28;20505;-83
2023/08/08 14:58:35;;;;;;;0.20;0.10;;;;;;;;;;5020301;28;20037;-86
2023/08/08 15:01:02;;;;;;;0.20;0.10;;;;;;;;;;5021455;28;20076;-85
2023/08/08 15:03:35;;;;;;;0.20;0.10;;;;;;;;;;5006352;28;20143;-86
2023/08/08 15:06:01;;;;;;;0.20;0.20;;;;;;;;;;5027959;28;20044;-87
2023/08/08 15:08:27;;;;;;;1.40;1.30;;;;;;;;;;5021083;28;20064;-85
2023/08/08 15:10:57;;;;;;;0.20;0.10;;;;;;;;;;5016407;28;20052;-85
2023/08/08 15:13:23;;;;;;;0.20;0.10;;;;;;;;;;5034387;28;20550;-87
2023/08/08 15:15:51;;;;;;;0.20;0.10;;;;;;;;;;5037536;28;20444;-85
2023/08/08 15:18:21;;;;;;;0.20;0.10;;;;;;;;;;5023345;28;20045;-86
2023/08/08 15:20:49;;;;;;;0.20;0.10;;;;;;;;;;5013189;28;20045;-85
2023/08/08 15:23:19;;;;;;;0.20;0.10;;;;;;;;;;5024983;28;20049;-85